Time;durP1;ratioP1;P1;durP2;ratioP2;P2;SDS_P1;SDS_P2;PMS_P1;PMS_P2;Temp;Humidity;BMP_temperature;BMP_pressure;BME280_temperature;BME280_humidity;BME280_pressure;Samples;Min_cycle;Max_cycle;Signal;HPM_P1;HPM_P2
2023/06/23 00:00:13;;;;;;;13.27;11.97;;;;;;;23.10;100.00;101584.00;2056845;28;20219;-62
2023/06/23 00:01:14;;;;;;;16.50;12.40;;;;;;;23.11;100.00;101585.53;2063960;28;20598;-63
2023/06/23 00:02:14;;;;;;;16.43;12.50;;;;;;;23.12;100.00;101589.94;2063518;28;20360;-62
2023/06/23 00:03:15;;;;;;;16.63;12.13;;;;;;;23.05;100.00;101588.31;2063172;28;20214;-63
2023/06/23 00:04:15;;;;;;;13.87;11.80;;;;;;;23.05;100.00;101591.16;2064409;28;20252;-62
2023/06/23 00:05:15;;;;;;;13.47;12.07;;;;;;;23.04;100.00;101600.13;2067442;28;20196;-63
2023/06/23 00:06:16;;;;;;;15.20;12.57;;;;;;;22.52;100.00;101514.41;2070411;28;20647;-63
2023/06/23 00:07:16;;;;;;;14.43;12.70;;;;;;;23.01;100.00;101587.75;2064052;28;20266;-63
2023/06/23 00:08:17;;;;;;;14.73;12.70;;;;;;;23.01;100.00;101601.09;2064745;28;20182;-63
2023/06/23 00:09:18;;;;;;;14.00;12.50;;;;;;;23.00;100.00;101591.06;2064102;28;20190;-63
2023/06/23 00:10:19;;;;;;;13.57;12.13;;;;;;;23.01;100.00;101601.09;2064502;28;20232;-62
2023/06/23 00:11:19;;;;;;;13.10;11.70;;;;;;;23.01;100.00;101598.28;2064082;28;20249;-63
2023/06/23 00:12:20;;;;;;;13.97;11.60;;;;;;;23.02;100.00;101599.84;2063532;28;20252;-62
2023/06/23 00:13:20;;;;;;;14.40;11.60;;;;;;;23.01;100.00;101593.41;2064088;28;20285;-62
2023/06/23 00:14:21;;;;;;;13.37;11.97;;;;;;;22.86;100.00;101572.91;2063886;28;20185;-62
2023/06/23 00:15:22;;;;;;;13.43;12.17;;;;;;;23.01;100.00;101587.75;2064059;28;20213;-63
2023/06/23 00:16:22;;;;;;;13.50;12.07;;;;;;;22.67;100.00;101537.72;2064713;28;20182;-62
2023/06/23 00:17:23;;;;;;;14.83;12.03;;;;;;;23.01;100.00;101576.44;2063681;28;20229;-63
2023/06/23 00:18:24;;;;;;;14.17;11.23;;;;;;;22.95;100.00;101575.59;2057899;28;20198;-63
2023/06/23 00:19:24;;;;;;;12.97;11.30;;;;;;;22.99;100.00;101589.53;2061368;28;20205;-62
2023/06/23 00:20:24;;;;;;;13.20;11.60;;;;;;;22.98;100.00;101585.91;2060285;28;20222;-63
2023/06/23 00:21:25;;;;;;;15.73;11.37;;;;;;;22.98;100.00;101587.97;2058896;28;20205;-63
2023/06/23 00:22:27;;;;;;;11.30;10.07;;;;;;;22.57;100.00;101535.53;2063847;28;20182;-62
2023/06/23 00:23:29;;;;;;;13.90;9.73;;;;;;;22.92;100.00;101584.31;2063721;28;20179;-62
2023/06/23 00:24:32;;;;;;;12.50;9.83;;;;;;;22.91;100.00;101585.56;2064631;28;20189;-62
2023/06/23 00:25:32;;;;;;;10.67;9.40;;;;;;;22.89;100.00;101580.41;2056620;28;20187;-62
2023/06/23 00:26:34;;;;;;;10.47;9.23;;;;;;;22.88;100.00;101583.72;2063229;28;20201;-63
2023/06/23 00:27:34;;;;;;;14.70;9.30;;;;;;;22.84;100.00;101583.94;2064491;28;20186;-63
2023/06/23 00:28:35;;;;;;;11.33;9.27;;;;;;;22.80;100.00;101574.91;2063683;28;20202;-63
2023/06/23 00:29:35;;;;;;;15.80;9.90;;;;;;;22.79;100.00;101576.19;2064300;28;20552;-63
2023/06/23 00:30:36;;;;;;;13.03;9.53;;;;;;;22.78;100.00;101583.06;2063902;28;20212;-63
2023/06/23 00:31:37;;;;;;;13.70;12.00;;;;;;;22.76;100.00;101579.97;2063863;28;20183;-63
2023/06/23 00:32:38;;;;;;;13.07;10.43;;;;;;;22.74;100.00;101579.69;2063289;28;20189;-62
2023/06/23 00:33:39;;;;;;;15.47;10.20;;;;;;;22.71;100.00;101583.50;2064568;28;20663;-62
2023/06/23 00:34:39;;;;;;;13.03;10.33;;;;;;;22.71;100.00;101575.03;2063762;28;20639;-62
2023/06/23 00:35:40;;;;;;;13.07;10.37;;;;;;;22.68;100.00;101578.06;2063636;28;20599;-62
2023/06/23 00:36:40;;;;;;;12.07;10.10;;;;;;;22.68;100.00;101575.25;2064336;28;20178;-63
2023/06/23 00:37:43;;;;;;;15.00;10.90;;;;;;;21.74;100.00;101423.44;2064203;28;20194;-62
2023/06/23 00:38:44;;;;;;;13.00;11.47;;;;;;;22.64;100.00;101581.09;2064409;28;20183;-63
2023/06/23 00:39:45;;;;;;;14.17;11.20;;;;;;;22.58;100.00;101571.00;2063956;28;20187;-63
2023/06/23 00:40:45;;;;;;;13.73;11.40;;;;;;;22.61;100.00;101576.44;2064031;28;20261;-62
2023/06/23 00:41:46;;;;;;;13.30;11.10;;;;;;;22.15;100.00;101499.22;2064506;28;20178;-62
2023/06/23 00:42:53;;;;;;;13.73;11.40;;;;;;;22.49;100.00;101557.78;2063204;28;20206;-62
2023/06/23 00:43:59;;;;;;;13.40;11.70;;;;;;;22.59;100.00;101564.84;2064447;28;20581;-63
2023/06/23 00:44:59;;;;;;;17.30;12.33;;;;;;;22.58;100.00;101571.78;2071483;28;20209;-62
2023/06/23 00:46:24;;;;;;;15.20;12.00;;;;;;;22.56;100.00;101568.66;2066157;28;20190;-62
2023/06/23 00:47:24;;;;;;;13.87;12.37;;;;;;;22.56;100.00;101568.66;2071999;28;20208;-63
2023/06/23 00:48:24;;;;;;;14.07;11.80;;;;;;;22.54;100.00;101568.38;2070418;28;20459;-62
2023/06/23 00:49:26;;;;;;;15.53;12.63;;;;;;;22.53;100.00;101574.50;2064088;28;20253;-62
2023/06/23 00:50:26;;;;;;;17.73;12.67;;;;;;;22.47;100.00;101568.00;2064309;28;20198;-62
2023/06/23 00:51:27;;;;;;;18.10;12.93;;;;;;;22.37;100.00;101575.03;2064125;28;20502;-63
2023/06/23 00:52:28;;;;;;;17.43;13.33;;;;;;;21.67;100.00;101466.13;2063397;28;20178;-62
2023/06/23 00:53:28;;;;;;;19.00;14.63;;;;;;;22.25;100.00;101582.53;2064199;28;20186;-62
2023/06/23 00:54:32;;;;;;;15.97;13.57;;;;;;;21.37;100.00;101456.13;2064348;28;20640;-62
2023/06/23 00:55:37;;;;;;;16.53;14.70;;;;;;;22.20;100.00;101591.69;2064269;28;20182;-63
2023/06/23 00:56:38;;;;;;;17.47;15.67;;;;;;;22.12;100.00;101598.25;2064631;28;20201;-62
2023/06/23 00:57:39;;;;;;;16.63;14.93;;;;;;;22.05;100.00;101588.13;2064174;28;20225;-63
2023/06/23 00:58:40;;;;;;;19.13;16.50;;;;;;;21.81;100.00;101545.13;2063633;28;20958;-62
2023/06/23 00:59:40;;;;;;;22.27;16.33;;;;;;;22.14;100.00;101599.31;2069240;28;20193;-62
2023/06/23 01:00:41;;;;;;;16.70;15.00;;;;;;;22.14;100.00;101592.88;2068382;28;20477;-63
2023/06/23 01:01:41;;;;;;;16.97;14.47;;;;;;;22.16;100.00;101598.81;2064368;28;20209;-63
2023/06/23 01:02:42;;;;;;;20.50;14.50;;;;;;;22.17;100.00;101601.16;2063695;28;20206;-63
2023/06/23 01:03:43;;;;;;;20.50;15.37;;;;;;;22.19;100.00;101595.00;2065579;28;20266;-62
2023/06/23 01:04:47;;;;;;;29.33;14.00;;;;;;;22.20;100.00;101596.56;2065915;28;20182;-63
2023/06/23 01:05:51;;;;;;;24.43;14.93;;;;;;;22.20;100.00;101588.88;2065897;28;20441;-62
2023/06/23 01:07:06;;;;;;;26.37;14.60;;;;;;;22.22;100.00;101591.22;2065551;28;20955;-62
2023/06/23 01:08:25;;;;;;;28.67;14.03;;;;;;;22.19;100.00;101587.31;2058022;28;20892;-63
2023/06/23 01:09:57;;;;;;;34.73;14.57;;;;;;;22.19;100.00;101581.69;2057752;28;20167;-62
2023/06/23 01:11:13;;;;;;;24.63;14.50;;;;;;;22.17;100.00;101581.41;2064814;28;20263;-63
2023/06/23 01:12:30;;;;;;;21.67;13.93;;;;;;;22.12;100.00;101572.84;2065929;28;20440;-62
2023/06/23 01:13:45;;;;;;;17.10;14.03;;;;;;;22.17;100.00;101574.97;2065721;28;20198;-62
2023/06/23 01:15:04;;;;;;;19.10;14.17;;;;;;;22.18;100.00;101568.84;2059674;28;20556;-62
2023/06/23 01:16:12;;;;;;;17.47;14.30;;;;;;;22.14;100.00;101565.44;2064534;28;20635;-64
2023/06/23 01:17:23;;;;;;;17.23;14.67;;;;;;;22.18;100.00;101568.03;2058185;28;20978;-63
2023/06/23 01:18:44;;;;;;;18.10;14.57;;;;;;;21.35;100.00;101442.50;2064725;28;20445;-63
2023/06/23 01:20:29;;;;;;;15.57;14.07;;;;;;;22.17;100.00;101564.47;2065965;28;20500;-62
2023/06/23 01:21:56;;;;;;;17.23;15.37;;;;;;;22.16;100.00;101567.78;2051956;28;20191;-62
2023/06/23 01:23:16;;;;;;;16.10;12.97;;;;;;;22.12;100.00;101565.16;2054838;28;20492;-63
2023/06/23 01:25:14;;;;;;;14.77;13.20;;;;;;;22.08;100.00;101566.59;2056820;28;20477;-63
2023/06/23 01:26:26;;;;;;;14.43;12.10;;;;;;;22.07;100.00;101563.03;2027228;29;20453;-63
2023/06/23 01:28:03;;;;;;;14.20;12.17;;;;;;;22.06;100.00;101561.44;2025595;29;20533;-63
2023/06/23 01:29:09;;;;;;;16.97;11.83;;;;;;;22.08;100.00;101555.31;2025631;29;20425;-62
2023/06/23 01:30:16;;;;;;;16.93;12.90;;;;;;;22.09;100.00;101559.69;2032814;29;20440;-63
2023/06/23 01:31:24;;;;;;;16.90;13.30;;;;;;;22.10;100.00;101558.44;2038836;28;20267;-62
2023/06/23 01:32:31;;;;;;;17.60;12.17;;;;;;;21.27;100.00;101430.09;2065475;28;20810;-62
2023/06/23 01:33:39;;;;;;;16.67;14.20;;;;;;;22.05;100.00;101557.06;2057914;28;20167;-62
2023/06/23 01:34:48;;;;;;;17.50;15.27;;;;;;;21.09;100.00;101410.53;2057715;28;20171;-63
2023/06/23 01:36:05;;;;;;;18.13;14.60;;;;;;;21.96;100.00;101562.06;2057676;28;20403;-63
2023/06/23 01:37:10;;;;;;;15.80;14.27;;;;;;;21.96;100.00;101567.69;2057352;28;20461;-63
2023/06/23 01:38:18;;;;;;;15.70;14.10;;;;;;;21.25;100.00;101458.00;2065736;28;20456;-62
2023/06/23 01:39:22;;;;;;;15.90;14.37;;;;;;;21.97;100.00;101560.78;2057721;28;20907;-62
2023/06/23 01:40:27;;;;;;;16.77;15.00;;;;;;;21.98;100.00;101559.50;2065463;28;20495;-62
2023/06/23 01:41:33;;;;;;;21.07;15.17;;;;;;;22.01;100.00;101552.91;2065549;28;20441;-62
2023/06/23 01:42:37;;;;;;;15.80;14.10;;;;;;;22.02;100.00;101554.44;2064985;28;20441;-63
2023/06/23 01:43:41;;;;;;;17.57;14.00;;;;;;;22.04;100.00;101552.69;2065439;28;20445;-63
2023/06/23 01:44:46;;;;;;;19.93;14.03;;;;;;;22.07;100.00;101545.28;2065271;28;20507;-63
2023/06/23 01:45:48;;;;;;;16.47;13.87;;;;;;;22.06;100.00;101552.97;2065233;28;20740;-63
2023/06/23 01:46:52;;;;;;;21.60;13.87;;;;;;;22.04;100.00;101549.88;2065149;28;20565;-62
2023/06/23 01:47:54;;;;;;;22.90;13.37;;;;;;;22.06;100.00;101552.22;2065642;28;20464;-63
2023/06/23 01:48:59;;;;;;;17.30;13.90;;;;;;;22.07;100.00;101554.56;2065097;28;20440;-62
2023/06/23 01:50:05;;;;;;;15.37;13.63;;;;;;;22.04;100.00;101549.88;2065455;28;20468;-62
2023/06/23 01:51:07;;;;;;;17.27;14.30;;;;;;;21.99;100.00;101558.25;2064996;28;20430;-63
2023/06/23 01:52:08;;;;;;;20.80;14.50;;;;;;;21.98;100.00;101553.88;2065183;28;20487;-63
2023/06/23 01:53:10;;;;;;;16.37;14.67;;;;;;;21.55;100.00;101486.97;2065137;28;20504;-63
2023/06/23 01:54:13;;;;;;;16.17;13.70;;;;;;;21.54;100.00;101494.63;2065364;28;20989;-62
2023/06/23 01:55:16;;;;;;;16.20;14.50;;;;;;;21.39;100.00;101456.44;2065070;28;20189;-62
2023/06/23 01:56:18;;;;;;;18.93;14.27;;;;;;;21.66;100.00;101516.13;2065149;28;20602;-64
2023/06/23 01:57:20;;;;;;;16.33;14.50;;;;;;;22.02;100.00;101563.72;2065234;28;20523;-63
2023/06/23 01:58:22;;;;;;;18.37;14.03;;;;;;;21.98;100.00;101554.66;2065093;28;20969;-63
2023/06/23 01:59:24;;;;;;;16.60;14.80;;;;;;;21.94;100.00;101556.91;2064735;28;20468;-63
2023/06/23 02:00:26;;;;;;;16.33;14.73;;;;;;;21.97;100.00;101558.75;2065273;28;20425;-62
2023/06/23 02:01:29;;;;;;;16.37;14.60;;;;;;;21.61;100.00;101497.06;2065227;28;20457;-63
2023/06/23 02:02:30;;;;;;;17.40;14.70;;;;;;;22.00;100.00;101559.81;2065002;28;20500;-62
2023/06/23 02:03:32;;;;;;;18.07;14.43;;;;;;;21.98;100.00;101559.50;2065563;28;20437;-62
2023/06/23 02:04:34;;;;;;;16.23;14.57;;;;;;;22.00;100.00;101562.63;2065299;28;20437;-62
2023/06/23 02:05:37;;;;;;;16.90;13.93;;;;;;;22.01;100.00;101552.91;2064872;28;20285;-62
2023/06/23 02:06:40;;;;;;;17.93;14.17;;;;;;;21.64;100.00;101510.19;2069692;28;20189;-63
2023/06/23 02:07:44;;;;;;;17.27;14.07;;;;;;;22.02;100.00;101557.28;2064521;28;20167;-62
2023/06/23 02:08:46;;;;;;;18.67;13.27;;;;;;;22.02;100.00;101551.63;2064895;28;20432;-63
2023/06/23 02:09:48;;;;;;;15.97;13.73;;;;;;;22.02;100.00;101549.59;2065665;28;20180;-62
2023/06/23 02:10:51;;;;;;;16.93;13.13;;;;;;;22.04;100.00;101560.38;2065053;28;20194;-62
2023/06/23 02:11:54;;;;;;;16.77;12.43;;;;;;;22.03;100.00;101556.00;2065314;28;20448;-62
2023/06/23 02:12:56;;;;;;;14.90;12.70;;;;;;;22.04;100.00;101560.38;2064539;28;20453;-62
2023/06/23 02:13:58;;;;;;;18.97;13.33;;;;;;;21.16;100.00;101426.28;2065007;28;20969;-63
2023/06/23 02:15:00;;;;;;;16.57;12.87;;;;;;;21.99;100.00;101559.03;2062896;28;20471;-62
2023/06/23 02:16:02;;;;;;;16.43;12.77;;;;;;;22.03;100.00;101556.78;2065115;28;20570;-62
2023/06/23 02:17:09;;;;;;;20.63;13.73;;;;;;;22.05;100.00;101559.13;2064991;28;20465;-63
2023/06/23 02:18:10;;;;;;;18.30;13.03;;;;;;;22.04;100.00;101551.91;2065264;28;20414;-63
2023/06/23 02:19:11;;;;;;;15.00;12.40;;;;;;;22.01;100.00;101552.91;2065712;28;20449;-63
2023/06/23 02:20:16;;;;;;;15.33;12.77;;;;;;;22.06;100.00;101555.03;2073526;28;20178;-62
2023/06/23 02:21:17;;;;;;;15.03;12.77;;;;;;;22.08;100.00;101558.13;2065346;28;20429;-62
2023/06/23 02:22:20;;;;;;;18.43;12.73;;;;;;;22.06;100.00;101555.78;2064415;28;21042;-62
2023/06/23 02:23:23;;;;;;;17.97;12.70;;;;;;;22.05;100.00;101545.78;2064686;28;20234;-63
2023/06/23 02:24:25;;;;;;;25.20;13.70;;;;;;;22.06;100.00;101552.22;2065095;28;20544;-62
2023/06/23 02:25:25;;;;;;;19.43;11.87;;;;;;;21.33;100.00;101453.50;2065039;28;20449;-62
2023/06/23 02:26:26;;;;;;;16.10;12.37;;;;;;;22.05;100.00;101553.50;2065008;28;20194;-62
2023/06/23 02:27:27;;;;;;;15.00;11.20;;;;;;;22.03;100.00;101539.06;2064927;28;20237;-62
2023/06/23 02:28:28;;;;;;;17.97;11.83;;;;;;;22.01;100.00;101547.25;2064890;28;20178;-63
2023/06/23 02:29:29;;;;;;;15.83;11.30;;;;;;;22.01;100.00;101544.44;2064899;28;20618;-63
2023/06/23 02:30:31;;;;;;;21.13;11.57;;;;;;;22.00;100.00;101554.19;2065435;28;20182;-62
2023/06/23 02:31:31;;;;;;;15.13;10.57;;;;;;;22.02;100.00;101546.78;2064777;28;20540;-62
2023/06/23 02:32:32;;;;;;;17.93;10.27;;;;;;;21.56;100.00;101480.84;2064816;28;20433;-62
2023/06/23 02:33:33;;;;;;;17.57;10.63;;;;;;;22.04;100.00;101552.69;2064759;28;20222;-62
2023/06/23 02:34:35;;;;;;;14.93;10.80;;;;;;;21.80;100.00;101520.22;2064456;28;20198;-62
2023/06/23 02:35:35;;;;;;;13.97;10.30;;;;;;;21.99;100.00;101550.56;2072393;28;20189;-62
2023/06/23 02:36:51;;;;;;;13.50;10.40;;;;;;;21.96;100.00;101554.34;2072283;28;20730;-63
2023/06/23 02:38:00;;;;;;;15.87;10.37;;;;;;;21.92;100.00;101555.81;2065167;28;20201;-63
2023/06/23 02:39:05;;;;;;;12.87;10.00;;;;;;;21.92;100.00;101565.09;2064534;28;20836;-62
2023/06/23 02:40:11;;;;;;;11.07;9.90;;;;;;;21.91;100.00;101555.03;2065127;28;20410;-62
2023/06/23 02:41:14;;;;;;;11.73;10.53;;;;;;;21.89;100.00;101560.41;2064679;28;20787;-62
2023/06/23 02:42:20;;;;;;;12.53;11.23;;;;;;;21.84;100.00;101549.00;2064704;28;20794;-62
2023/06/23 02:43:28;;;;;;;12.97;10.30;;;;;;;21.88;100.00;101555.25;2064568;28;20413;-63
2023/06/23 02:44:39;;;;;;;11.37;10.23;;;;;;;21.86;100.00;101557.78;2064874;28;20398;-62
2023/06/23 02:45:42;;;;;;;12.20;10.97;;;;;;;21.85;100.00;101554.16;2064685;28;20449;-62
2023/06/23 02:46:46;;;;;;;15.50;12.50;;;;;;;21.83;100.00;101550.28;2072303;28;20556;-62
2023/06/23 02:47:51;;;;;;;14.17;12.40;;;;;;;21.76;100.00;101559.16;2072329;28;20191;-62
2023/06/23 02:48:57;;;;;;;16.20;13.10;;;;;;;21.77;100.00;101555.84;2057066;28;20437;-62
2023/06/23 02:50:02;;;;;;;18.03;13.47;;;;;;;21.78;100.00;101553.78;2064780;28;20197;-63
2023/06/23 02:51:05;;;;;;;16.13;13.30;;;;;;;21.79;100.00;101561.78;2057266;28;20557;-63
2023/06/23 02:52:10;;;;;;;15.47;13.70;;;;;;;21.73;100.00;101554.47;2070044;28;20186;-63
2023/06/23 02:53:27;;;;;;;15.23;13.33;;;;;;;21.78;100.00;101565.88;2065790;28;20286;-62
2023/06/23 02:54:35;;;;;;;21.93;13.40;;;;;;;21.77;100.00;101569.94;2065036;28;20186;-63
2023/06/23 02:55:44;;;;;;;19.07;13.23;;;;;;;21.08;100.00;101444.88;2063855;28;20297;-63
2023/06/23 02:56:46;;;;;;;19.67;13.73;;;;;;;21.77;100.00;101564.31;2063752;28;20624;-62
2023/06/23 02:57:50;;;;;;;22.03;12.20;;;;;;;21.78;100.00;101557.41;2064103;28;20214;-62
2023/06/23 02:58:56;;;;;;;17.23;11.50;;;;;;;21.76;100.00;101548.66;2064296;28;20245;-63
2023/06/23 03:00:00;;;;;;;18.73;12.40;;;;;;;21.74;100.00;101551.16;2064803;28;20245;-63
2023/06/23 03:01:02;;;;;;;15.80;11.77;;;;;;;21.72;100.00;101548.06;2063820;28;20202;-62
2023/06/23 03:02:07;;;;;;;13.73;11.83;;;;;;;21.71;100.00;101543.69;2061527;28;20213;-63
2023/06/23 03:03:13;;;;;;;13.73;11.37;;;;;;;21.73;100.00;101543.97;2058370;28;20656;-63
2023/06/23 03:04:13;;;;;;;14.70;11.37;;;;;;;21.72;100.00;101547.28;2064596;28;20189;-63
2023/06/23 03:05:14;;;;;;;15.73;11.63;;;;;;;21.71;100.00;101540.09;2064495;28;20725;-62
2023/06/23 03:06:19;;;;;;;16.03;11.47;;;;;;;21.05;100.00;101451.47;2065261;28;20174;-63
2023/06/23 03:07:19;;;;;;;16.57;12.10;;;;;;;21.68;100.00;101555.13;2057002;28;20263;-62
2023/06/23 03:08:20;;;;;;;14.53;11.40;;;;;;;21.66;100.00;101558.44;2063494;28;20205;-63
2023/06/23 03:09:20;;;;;;;15.27;12.10;;;;;;;21.54;100.00;101556.69;2064558;28;20182;-62
2023/06/23 03:10:21;;;;;;;15.07;12.07;;;;;;;21.52;100.00;101558.44;2064574;28;20277;-62
2023/06/23 03:11:21;;;;;;;14.07;10.97;;;;;;;21.47;100.00;101561.94;2064526;28;20193;-62
2023/06/23 03:12:22;;;;;;;19.37;12.80;;;;;;;21.40;100.00;101563.06;2064130;28;20178;-63
2023/06/23 03:13:22;;;;;;;20.13;14.60;;;;;;;21.37;100.00;101563.28;2064694;28;20178;-63
2023/06/23 03:14:23;;;;;;;21.00;15.30;;;;;;;21.39;100.00;101567.16;2064768;28;20174;-63
2023/06/23 03:15:24;;;;;;;23.93;15.13;;;;;;;21.35;100.00;101568.63;2064888;28;20175;-63
2023/06/23 03:16:39;;;;;;;19.10;14.87;;;;;;;21.25;100.00;101592.53;2064675;28;20229;-62
2023/06/23 03:17:41;;;;;;;17.40;14.00;;;;;;;21.23;100.00;101575.31;2064185;28;20210;-62
2023/06/23 03:18:52;;;;;;;22.10;13.83;;;;;;;21.18;100.00;101567.53;2063831;28;20218;-62
2023/06/23 03:20:00;;;;;;;19.23;14.77;;;;;;;21.19;100.00;101577.53;2064210;28;20193;-63
2023/06/23 03:21:04;;;;;;;21.10;15.10;;;;;;;21.18;100.00;101579.56;2064196;28;20198;-62
2023/06/23 03:22:14;;;;;;;19.77;14.27;;;;;;;20.45;100.00;101476.34;2064843;28;20575;-62
2023/06/23 03:23:16;;;;;;;18.47;13.90;;;;;;;21.23;100.00;101586.59;2064551;28;20444;-62
2023/06/23 03:24:18;;;;;;;21.53;14.33;;;;;;;21.02;100.00;101556.69;2064646;28;20946;-63
2023/06/23 03:25:27;;;;;;;16.33;14.47;;;;;;;21.26;100.00;101589.22;2064623;28;20449;-62
2023/06/23 03:26:30;;;;;;;21.90;14.37;;;;;;;21.30;100.00;101592.66;2064059;28;20599;-62
2023/06/23 03:27:36;;;;;;;21.73;14.53;;;;;;;21.11;100.00;101568.69;2064523;28;20190;-62
2023/06/23 03:28:41;;;;;;;16.37;13.80;;;;;;;21.03;100.00;101584.38;2064667;28;20198;-62
2023/06/23 03:29:53;;;;;;;17.80;14.00;;;;;;;20.92;100.00;101541.09;2064541;28;20198;-63
2023/06/23 03:31:06;;;;;;;19.50;14.83;;;;;;;21.31;100.00;101605.47;2064398;28;20202;-63
2023/06/23 03:32:10;;;;;;;16.10;14.43;;;;;;;21.35;100.00;101600.41;2064549;28;20194;-63
2023/06/23 03:33:18;;;;;;;17.93;15.43;;;;;;;21.34;100.00;101610.13;2063862;28;20194;-62
2023/06/23 03:34:23;;;;;;;21.43;15.97;;;;;;;21.06;100.00;101566.53;2064624;28;20812;-62
2023/06/23 03:35:31;;;;;;;19.10;15.63;;;;;;;21.36;100.00;101618.13;2064031;28;20174;-62
2023/06/23 03:36:36;;;;;;;20.33;15.57;;;;;;;21.13;100.00;101587.94;2064785;28;20167;-62
2023/06/23 03:37:43;;;;;;;20.60;15.63;;;;;;;21.37;100.00;101626.09;2064136;28;20616;-63
2023/06/23 03:38:59;;;;;;;20.50;15.73;;;;;;;21.41;100.00;101629.50;2064579;28;20187;-62
2023/06/23 03:40:09;;;;;;;22.43;15.77;;;;;;;21.47;100.00;101629.59;2064418;28;20210;-62
2023/06/23 03:41:11;;;;;;;18.57;15.17;;;;;;;21.46;100.00;101634.47;2063829;28;20196;-62
2023/06/23 03:42:12;;;;;;;20.97;14.97;;;;;;;20.67;100.00;101516.25;2063519;28;20183;-62
2023/06/23 03:43:21;;;;;;;20.97;15.80;;;;;;;21.45;100.00;101660.34;2063278;28;20210;-62
2023/06/23 03:44:33;;;;;;;20.50;15.63;;;;;;;20.76;100.00;101533.06;2057298;28;20167;-63
2023/06/23 03:45:38;;;;;;;22.17;15.93;;;;;;;21.53;100.00;101650.22;2065257;28;20587;-62
2023/06/23 03:46:50;;;;;;;21.10;15.80;;;;;;;21.35;100.00;101619.38;2071581;28;20241;-62
2023/06/23 03:47:56;;;;;;;19.27;15.77;;;;;;;21.51;100.00;101644.31;2064224;28;20412;-63
2023/06/23 03:49:01;;;;;;;18.40;16.03;;;;;;;21.56;100.00;101643.63;2064313;28;20524;-63
2023/06/23 03:50:11;;;;;;;22.00;15.97;;;;;;;21.51;100.00;101633.81;2064629;28;20178;-62
2023/06/23 03:51:14;;;;;;;28.30;16.57;;;;;;;21.65;100.00;101661.25;2064268;28;20421;-62
2023/06/23 03:52:17;;;;;;;23.90;15.97;;;;;;;21.67;100.00;101646.66;2064579;28;20559;-62
2023/06/23 03:53:20;;;;;;;17.83;15.67;;;;;;;21.67;100.00;101644.63;2064012;28;20256;-62
2023/06/23 03:54:23;;;;;;;21.87;17.00;;;;;;;21.75;100.00;101636.59;2064268;28;20194;-62
2023/06/23 03:55:27;;;;;;;22.00;17.57;;;;;;;21.77;100.00;101646.13;2064467;28;20182;-63
2023/06/23 03:56:30;;;;;;;27.20;17.87;;;;;;;21.80;100.00;101645.16;2064546;28;20667;-62
2023/06/23 03:57:32;;;;;;;19.97;17.83;;;;;;;21.82;100.00;101645.47;2064449;28;20202;-62
2023/06/23 03:58:34;;;;;;;20.90;17.50;;;;;;;21.87;100.00;101647.59;2064571;28;20186;-62
2023/06/23 03:59:37;;;;;;;22.50;18.20;;;;;;;21.45;100.00;101581.38;2064553;28;20198;-62
2023/06/23 04:00:39;;;;;;;23.70;17.00;;;;;;;22.02;100.00;101650.41;2064233;28;20670;-62
2023/06/23 04:01:41;;;;;;;19.30;16.90;;;;;;;22.09;100.00;101648.00;2064128;28;20655;-62
2023/06/23 04:02:44;;;;;;;23.23;17.10;;;;;;;22.11;100.00;101644.69;2064124;28;20181;-62
2023/06/23 04:03:44;;;;;;;22.80;17.20;;;;;;;22.23;100.00;101654.88;2072965;28;20600;-63
2023/06/23 04:04:47;;;;;;;23.17;18.07;;;;;;;22.30;100.00;101649.63;2064820;28;20186;-62
2023/06/23 04:05:49;;;;;;;20.83;17.60;;;;;;;22.29;100.00;101645.25;2064222;28;20186;-62
2023/06/23 04:06:52;;;;;;;21.87;17.37;;;;;;;22.37;100.00;101646.38;2064313;28;20194;-62
2023/06/23 04:07:54;;;;;;;25.30;18.20;;;;;;;22.44;100.00;101645.22;2059361;28;20295;-63
2023/06/23 04:08:55;;;;;;;25.00;17.63;;;;;;;21.72;100.00;101533.97;2059685;28;20197;-63
2023/06/23 04:10:01;;;;;;;23.40;17.53;;;;;;;22.41;100.00;101626.44;2064467;28;20328;-63
2023/06/23 04:11:03;;;;;;;22.00;18.43;;;;;;;22.62;100.00;101637.31;2063548;28;20191;-63
2023/06/23 04:12:05;;;;;;;25.53;19.40;;;;;;;22.65;100.00;101641.19;2064341;28;20189;-62
2023/06/23 04:13:08;;;;;;;28.63;18.93;;;;;;;22.64;100.00;101637.63;2063340;28;20277;-62
2023/06/23 04:14:09;;;;;;;23.33;18.80;;;;;;;22.63;100.00;101644.50;2064736;28;20543;-62
2023/06/23 04:15:11;;;;;;;27.30;19.57;;;;;;;22.69;100.00;101648.22;2064104;28;20240;-62
2023/06/23 04:16:13;;;;;;;24.23;18.70;;;;;;;22.73;100.00;101651.59;2064354;28;20212;-63
2023/06/23 04:17:15;;;;;;;24.43;18.53;;;;;;;22.69;100.00;101642.56;2064106;28;20240;-62
2023/06/23 04:18:18;;;;;;;20.90;18.67;;;;;;;22.76;100.00;101652.66;2064219;28;20196;-62
2023/06/23 04:19:25;;;;;;;22.33;18.27;;;;;;;22.79;100.00;101654.50;2064253;28;20193;-62
2023/06/23 04:20:26;;;;;;;23.47;19.23;;;;;;;22.20;100.00;101546.53;2063472;28;20182;-62
2023/06/23 04:21:29;;;;;;;20.77;18.63;;;;;;;22.83;100.00;101650.19;2064049;28;20170;-63
2023/06/23 04:22:30;;;;;;;20.63;18.53;;;;;;;22.95;100.00;101646.28;2062282;28;20182;-63
2023/06/23 04:23:34;;;;;;;24.87;17.80;;;;;;;22.98;100.00;101650.16;2056973;28;20183;-63
2023/06/23 04:24:39;;;;;;;21.90;18.83;;;;;;;22.49;100.00;101563.44;2064535;28;20265;-62
2023/06/23 04:25:42;;;;;;;21.53;18.80;;;;;;;22.48;100.00;101552.63;2056503;28;20181;-62
2023/06/23 04:26:44;;;;;;;23.93;19.73;;;;;;;23.09;100.00;101641.81;2063935;28;20194;-63
2023/06/23 04:27:47;;;;;;;21.67;18.73;;;;;;;22.60;100.00;101574.88;2064098;28;20183;-62
2023/06/23 04:28:49;;;;;;;21.77;18.47;;;;;;;22.55;100.00;101560.66;2064075;28;20577;-62
2023/06/23 04:29:51;;;;;;;25.47;19.20;;;;;;;23.11;100.00;101639.28;2064294;28;20190;-62
2023/06/23 04:30:55;;;;;;;20.73;18.53;;;;;;;23.05;100.00;101639.22;2063943;28;20206;-62
2023/06/23 04:31:56;;;;;;;23.07;18.83;;;;;;;22.46;100.00;101547.44;2063271;28;20194;-62
2023/06/23 04:32:58;;;;;;;24.67;19.37;;;;;;;22.18;100.00;101505.94;2063624;28;20178;-63
2023/06/23 04:33:58;;;;;;;25.67;20.40;;;;;;;23.09;100.00;101642.59;2071211;28;20209;-63
2023/06/23 04:34:59;;;;;;;24.77;19.13;;;;;;;23.04;100.00;101631.22;2071415;28;20181;-62
2023/06/23 04:36:09;;;;;;;28.20;19.53;;;;;;;23.03;100.00;101643.81;2064011;28;20186;-62
2023/06/23 04:37:19;;;;;;;24.87;19.53;;;;;;;23.03;100.00;101636.09;2046060;28;20268;-63
2023/06/23 04:38:24;;;;;;;24.50;19.97;;;;;;;22.96;100.00;101630.88;2061794;28;20668;-62
2023/06/23 04:39:29;;;;;;;25.00;19.53;;;;;;;23.10;100.00;101637.72;2067302;28;20221;-62
2023/06/23 04:40:51;;;;;;;23.80;17.80;;;;;;;23.15;100.00;101643.47;2070056;28;20204;-62
2023/06/23 04:41:56;;;;;;;23.13;18.90;;;;;;;22.77;100.00;101575.88;2065512;28;20212;-62
2023/06/23 04:43:09;;;;;;;26.27;20.17;;;;;;;23.24;100.00;101648.97;2061296;28;20182;-63
2023/06/23 04:44:12;;;;;;;23.43;18.77;;;;;;;23.31;100.00;101634.44;2063158;28;20182;-62
2023/06/23 04:45:19;;;;;;;27.50;18.80;;;;;;;23.35;100.00;101628.56;2063293;28;20672;-63
2023/06/23 04:46:24;;;;;;;27.97;18.97;;;;;;;23.40;100.00;101661.78;2064218;28;20186;-63
2023/06/23 04:47:29;;;;;;;25.27;19.50;;;;;;;23.22;100.00;101592.16;2063660;28;20198;-63
2023/06/23 04:48:37;;;;;;;26.60;20.30;;;;;;;23.45;100.00;101622.25;2064218;28;20612;-63
2023/06/23 04:49:40;;;;;;;34.43;22.77;;;;;;;23.01;100.00;101547.38;2063593;28;20220;-63
2023/06/23 04:50:42;;;;;;;26.67;22.00;;;;;;;23.44;100.00;101611.44;2058338;28;20222;-62